Time;durP1;ratioP1;P1;durP2;ratioP2;P2;SDS_P1;SDS_P2;PMS_P1;PMS_P2;Temp;Humidity;BMP_temperature;BMP_pressure;BME280_temperature;BME280_humidity;BME280_pressure;Samples;Min_cycle;Max_cycle;Signal;HPM_P1;HPM_P2
2022/08/12 00:43:35;;;;;;;0.10;0.10;;;;;;;23.86;49.23;101503.72;5113208;27;20082;-37
2022/08/12 00:46:35;;;;;;;0.10;0.10;;;;;;;23.87;49.26;101503.41;5124491;27;20042;-37
2022/08/12 00:48:48;;;;;;;0.10;0.10;;;;;;;23.86;49.20;101512.06;5120103;27;20126;-37
2022/08/12 00:51:14;;;;;;;0.00;0.00;;;;;;;23.85;49.29;101508.44;5144214;27;20545;-37
2022/08/12 00:53:41;;;;;;;0.10;0.10;;;;;;;23.86;49.32;101514.84;5139596;27;20051;-38
2022/08/12 00:56:07;;;;;;;0.10;0.10;;;;;;;23.86;49.39;101514.84;5148462;27;20043;-37
2022/08/12 00:58:33;;;;;;;0.10;0.10;;;;;;;23.86;49.22;101509.28;5121295;27;20123;-37
2022/08/12 01:01:03;;;;;;;0.10;0.10;;;;;;;23.86;49.42;101506.50;5106095;27;20129;-38
2022/08/12 01:11:27;;;;;;;0.10;0.10;;;;;;;23.85;49.24;101511.22;5139451;27;20089;-38
2022/08/12 01:11:53;;;;;;;0.10;0.10;;;;;;;23.84;49.37;101506.81;5129919;27;20183;-37
2022/08/12 01:14:22;;;;;;;0.10;0.10;;;;;;;23.84;49.36;101506.81;5121234;27;20077;-38
2022/08/12 01:16:49;;;;;;;0.10;0.10;;;;;;;23.85;49.21;101505.66;5140651;27;20172;-37
2022/08/12 01:19:16;;;;;;;;;;;;;;;23.85;49.27;101508.44;5140997;27;20042;-37
2022/08/12 01:22:17;;;;;;;0.10;0.10;;;;;;;23.84;49.55;101508.75;5152861;27;19919;-37
2022/08/12 01:25:05;;;;;;;0.10;0.10;;;;;;;23.85;49.21;101510.41;5114291;27;20523;-37
2022/08/12 01:27:33;;;;;;;0.10;0.10;;;;;;;23.85;49.36;101511.22;5126645;27;20481;-38
2022/08/12 01:30:01;;;;;;;0.10;0.10;;;;;;;23.85;49.34;101510.41;5142541;27;20122;-38
2022/08/12 01:32:28;;;;;;;0.00;0.00;;;;;;;23.85;49.49;101513.19;5121069;27;20529;-37
2022/08/12 01:35:04;;;;;;;0.10;0.10;;;;;;;23.85;49.37;101516.78;5143335;27;20131;-37
2022/08/12 01:37:35;;;;;;;0.10;0.10;;;;;;;23.85;49.46;101507.63;5139215;27;20082;-37
2022/08/12 01:40:02;;;;;;;0.10;0.10;;;;;;;23.85;49.32;101502.88;5140757;27;20100;-37
2022/08/12 01:42:50;;;;;;;0.10;0.10;;;;;;;23.84;49.32;101506.81;5110796;27;20042;-39
2022/08/12 01:45:21;;;;;;;0.10;0.10;;;;;;;23.84;49.48;101505.97;5140530;27;20123;-38
2022/08/12 01:48:08;;;;;;;0.10;0.10;;;;;;;23.85;49.36;101513.19;5142302;27;20130;-38
2022/08/12 01:51:00;;;;;;;0.10;0.10;;;;;;;23.85;49.48;101507.63;5123696;27;20548;-38
2022/08/12 01:53:45;;;;;;;0.10;0.10;;;;;;;23.85;49.37;101510.41;5126445;27;20047;-37
2022/08/12 01:56:17;;;;;;;0.10;0.10;;;;;;;23.84;49.52;101506.81;5137225;27;20055;-37
2022/08/12 02:01:33;;;;;;;0.10;0.10;;;;;;;23.84;49.53;101505.97;5122160;27;20121;-37
2022/08/12 02:11:21;;;;;;;0.10;0.10;;;;;;;23.84;49.39;101506.81;5109139;27;20085;-38
2022/08/12 02:19:57;;;;;;;0.10;0.10;;;;;;;23.84;49.34;101505.97;5167004;27;20194;-35
2022/08/12 02:22:28;;;;;;;0.10;0.10;;;;;;;23.84;49.54;101514.31;5135998;27;20081;-35
2022/08/12 02:25:00;;;;;;;0.10;0.10;;;;;;;23.83;49.29;101510.69;5154502;27;20163;-35
2022/08/12 02:27:27;;;;;;;0.10;0.10;;;;;;;23.83;49.47;101510.69;5135876;27;20074;-35
2022/08/12 02:29:53;;;;;;;0.10;0.10;;;;;;;23.84;49.47;101503.19;5155758;27;20498;-35
2022/08/12 02:32:19;;;;;;;0.10;0.10;;;;;;;23.84;49.38;101508.75;5152135;27;20092;-35
2022/08/12 02:34:45;;;;;;;0.10;0.10;;;;;;;23.83;49.43;101504.28;5158123;27;20126;-35
2022/08/12 02:37:14;;;;;;;0.10;0.10;;;;;;;23.83;49.45;101513.47;5158668;27;20054;-35
2022/08/12 02:39:47;;;;;;;0.10;0.10;;;;;;;23.83;49.48;101516.25;5155792;27;20482;-35
2022/08/12 02:42:15;;;;;;;0.45;0.20;;;;;;;23.81;49.46;101515.72;5136070;27;20464;-35
2022/08/12 02:44:44;;;;;;;0.10;0.10;;;;;;;23.82;49.50;101519.34;5153546;27;20545;-36
2022/08/12 02:47:10;;;;;;;0.10;0.10;;;;;;;23.82;49.53;101520.16;5153290;27;20050;-35
2022/08/12 02:49:57;;;;;;;0.10;0.10;;;;;;;23.84;49.36;101522.66;5140115;27;20106;-35
2022/08/12 02:52:25;;;;;;;0.10;0.10;;;;;;;23.84;49.42;101517.09;5156949;27;20089;-35
2022/08/12 02:55:00;;;;;;;0.10;0.10;;;;;;;23.83;49.50;101515.41;5149697;27;20186;-35
2022/08/12 02:57:26;;;;;;;0.10;0.10;;;;;;;23.83;49.62;101512.63;5152701;27;20085;-35
2022/08/12 02:59:52;;;;;;;0.10;0.10;;;;;;;23.83;49.57;101512.63;5152593;27;20058;-36
2022/08/12 03:02:20;;;;;;;0.10;0.10;;;;;;;23.81;49.55;101515.72;5151125;27;20125;-35
2022/08/12 03:04:55;;;;;;;;;;;;;;;23.81;49.62;101510.16;5134206;27;20133;-35
2022/08/12 03:10:07;;;;;;;0.10;0.10;;;;;;;23.81;49.55;101507.38;5166171;27;20217;-34
2022/08/12 03:12:45;;;;;;;0.10;0.10;;;;;;;23.81;49.55;101509.34;5148374;27;20066;-35
2022/08/12 03:15:19;;;;;;;0.10;0.10;;;;;;;23.81;49.51;101509.34;5130597;27;20035;-35
2022/08/12 03:18:11;;;;;;;0.10;0.10;;;;;;;23.82;49.39;101509.03;5147419;27;20059;-35
2022/08/12 03:20:53;;;;;;;0.10;0.10;;;;;;;23.81;49.54;101510.16;5136043;27;20099;-35
2022/08/12 03:23:20;;;;;;;0.00;0.00;;;;;;;23.81;49.59;101504.59;5152206;27;20611;-35
2022/08/12 03:25:58;;;;;;;0.10;0.10;;;;;;;23.81;49.42;101507.38;5150183;27;20042;-35
2022/08/12 03:28:56;;;;;;;0.10;0.10;;;;;;;23.82;49.54;101502.66;5149825;27;20485;-35
2022/08/12 03:31:09;;;;;;;0.10;0.10;;;;;;;23.81;49.52;101504.59;5133100;27;20089;-35
2022/08/12 03:33:38;;;;;;;0.10;0.10;;;;;;;23.81;49.65;101501.81;5155819;27;20047;-35
2022/08/12 03:36:06;;;;;;;0.10;0.10;;;;;;;23.81;49.54;101504.59;5148069;27;20081;-35
2022/08/12 03:38:37;;;;;;;0.10;0.10;;;;;;;23.81;49.50;101501.81;5130257;27;20496;-35
2022/08/12 03:41:39;;;;;;;0.10;0.10;;;;;;;23.81;49.65;101509.34;5150766;27;20131;-35
2022/08/12 04:00:57;;;;;;;0.10;0.10;;;;;;;23.80;49.68;101494.63;5116282;27;20151;-35
2022/08/12 04:03:55;;;;;;;0.10;0.10;;;;;;;23.81;49.72;101498.22;5150836;27;20134;-35
2022/08/12 04:06:09;;;;;;;0.00;0.00;;;;;;;23.81;49.62;101495.44;5134153;27;20066;-35
2022/08/12 04:08:35;;;;;;;0.10;0.10;;;;;;;23.82;49.55;101502.66;5149698;27;20054;-35
2022/08/12 04:13:47;;;;;;;0.10;0.10;;;;;;;23.79;49.49;101515.19;5133259;27;20131;-35
2022/08/12 04:16:14;;;;;;;0.10;0.10;;;;;;;23.80;49.51;101507.69;5148170;27;20184;-35
2022/08/12 04:18:41;;;;;;;0.10;0.10;;;;;;;23.80;49.64;101513.25;5147214;27;20074;-35
2022/08/12 04:21:09;;;;;;;0.10;0.10;;;;;;;23.80;49.60;101519.66;5099948;28;20067;-35
2022/08/12 04:23:37;;;;;;;0.10;0.10;;;;;;;23.80;49.50;101516.88;5138977;27;20082;-35
2022/08/12 04:26:04;;;;;;;0.10;0.10;;;;;;;23.80;49.77;101524.38;5115137;27;20104;-35
2022/08/12 04:28:30;;;;;;;0.10;0.10;;;;;;;23.80;49.67;101525.22;5137604;27;20099;-35
2022/08/12 04:30:56;;;;;;;0.10;0.10;;;;;;;23.81;49.49;101514.91;5119628;27;20505;-35
2022/08/12 04:33:24;;;;;;;0.10;0.10;;;;;;;23.80;49.64;101522.44;5117322;27;20071;-35
2022/08/12 04:35:49;;;;;;;0.10;0.10;;;;;;;23.80;49.74;101519.66;5134153;27;20139;-35
2022/08/12 04:38:16;;;;;;;0.10;0.10;;;;;;;23.82;49.66;101520.16;5134807;27;20405;-35
2022/08/12 04:40:44;;;;;;;0.10;0.10;;;;;;;23.81;49.44;101514.91;5115898;28;20156;-35
2022/08/12 04:43:10;;;;;;;0.10;0.10;;;;;;;23.81;49.65;101512.13;5118490;27;20076;-35
2022/08/12 04:45:56;;;;;;;0.10;0.10;;;;;;;23.82;49.56;101516.56;5103703;27;20450;-35
2022/08/12 04:48:22;;;;;;;0.10;0.10;;;;;;;23.81;49.43;101509.34;5133366;27;20043;-35
2022/08/12 04:50:47;;;;;;;0.10;0.10;;;;;;;23.80;49.49;101508.53;5135140;27;20061;-36
2022/08/12 04:53:13;;;;;;;0.10;0.10;;;;;;;23.81;49.43;101507.38;5137251;27;20043;-35
2022/08/12 04:55:40;;;;;;;0.10;0.10;;;;;;;23.82;48.78;101511.00;5137837;27;20095;-35
2022/08/12 04:58:06;;;;;;;0.10;0.10;;;;;;;23.80;49.58;101514.09;5119218;27;20467;-35
2022/08/12 05:00:32;;;;;;;0.10;0.10;;;;;;;23.80;48.90;101505.75;5128211;27;20085;-35
2022/08/12 05:02:58;;;;;;;0.10;0.10;;;;;;;23.80;49.39;101505.75;5130222;27;20515;-35
2022/08/12 05:05:23;;;;;;;0.10;0.10;;;;;;;23.80;48.91;101504.91;5129874;27;20529;-35
2022/08/12 05:07:50;;;;;;;0.10;0.10;;;;;;;23.80;49.16;101511.31;5133356;27;20051;-35
2022/08/12 05:10:21;;;;;;;0.10;0.10;;;;;;;23.80;49.34;101511.31;5115738;27;20038;-35
2022/08/12 05:13:00;;;;;;;0.10;0.10;;;;;;;23.80;48.56;101511.31;5133570;27;20046;-35
2022/08/12 05:15:26;;;;;;;0.10;0.10;;;;;;;23.80;49.54;101511.31;5125396;27;20495;-35
2022/08/12 05:17:55;;;;;;;0.10;0.10;;;;;;;23.80;49.58;101502.13;5135047;27;20054;-35
2022/08/12 05:20:21;;;;;;;0.10;0.10;;;;;;;23.80;49.71;101516.03;5132249;27;20034;-36
2022/08/12 05:22:48;;;;;;;0.10;0.10;;;;;;;23.78;49.56;101506.00;5114420;27;20595;-35
2022/08/12 05:25:14;;;;;;;0.10;0.10;;;;;;;23.78;49.48;101503.25;5115862;27;20515;-35
2022/08/12 05:27:44;;;;;;;0.10;0.10;;;;;;;23.78;49.73;101505.19;5133632;27;20047;-35
2022/08/12 05:30:29;;;;;;;0.10;0.10;;;;;;;23.80;48.98;101508.53;5132119;27;20039;-36
2022/08/12 05:32:56;;;;;;;0.15;0.15;;;;;;;23.80;49.34;101504.91;5113417;27;20063;-35
2022/08/12 05:35:26;;;;;;;0.10;0.10;;;;;;;23.79;49.48;101512.41;5140954;27;20043;-35
2022/08/12 05:38:54;;;;;;;0.10;0.10;;;;;;;23.79;49.01;101509.63;5114055;27;20138;-37
2022/08/12 05:40:37;;;;;;;0.10;0.10;;;;;;;23.79;49.61;101509.63;5116765;27;20042;-36
2022/08/12 05:43:04;;;;;;;0.10;0.10;;;;;;;23.78;49.54;101516.31;5133716;27;20046;-35
2022/08/12 05:45:30;;;;;;;0.10;0.10;;;;;;;23.78;49.65;101514.38;5126595;27;20549;-36
2022/08/12 05:47:55;;;;;;;0.10;0.10;;;;;;;23.78;49.63;101521.88;5123088;27;20043;-35
2022/08/12 05:50:21;;;;;;;0.10;0.10;;;;;;;23.78;49.26;101522.72;5127842;27;20050;-35
2022/08/12 05:52:47;;;;;;;0.10;0.10;;;;;;;23.78;49.66;101528.25;5129648;27;20085;-35
2022/08/12 05:55:13;;;;;;;0.10;0.10;;;;;;;23.78;49.42;101525.47;5137315;27;20445;-35
2022/08/12 05:57:39;;;;;;;0.10;0.10;;;;;;;23.81;49.40;101524.06;5131485;27;20039;-36
2022/08/12 06:00:05;;;;;;;0.10;0.10;;;;;;;23.79;49.53;101526.31;5133384;27;20047;-35
2022/08/12 06:02:31;;;;;;;0.10;0.10;;;;;;;23.79;49.43;101531.88;5139523;27;20062;-35
2022/08/12 06:04:59;;;;;;;0.10;0.10;;;;;;;23.78;49.53;101530.22;5129415;27;20057;-35
2022/08/12 06:07:25;;;;;;;0.10;0.10;;;;;;;23.78;49.57;101533.00;5130169;27;20075;-35
2022/08/12 06:10:11;;;;;;;0.10;0.10;;;;;;;23.78;49.63;101524.66;5105288;27;20061;-35
2022/08/12 06:12:36;;;;;;;0.10;0.10;;;;;;;23.78;49.58;101530.22;5113837;27;20078;-36
2022/08/12 06:15:03;;;;;;;0.10;0.10;;;;;;;23.77;49.62;101528.56;5112811;27;20062;-35
2022/08/12 06:17:29;;;;;;;0.10;0.10;;;;;;;23.78;49.57;101533.84;5109287;28;20134;-37
2022/08/12 06:19:57;;;;;;;0.15;0.15;;;;;;;23.78;48.14;101530.22;5126621;27;20083;-39
2022/08/12 06:22:43;;;;;;;0.10;0.10;;;;;;;23.80;48.95;101522.44;5097061;27;20040;-38
2022/08/12 06:25:09;;;;;;;0.10;0.10;;;;;;;23.79;49.16;101526.31;5107415;27;20046;-38
2022/08/12 06:27:47;;;;;;;0.10;0.10;;;;;;;23.80;49.17;101522.44;5121587;27;20039;-37
2022/08/12 06:30:34;;;;;;;0.10;0.10;;;;;;;23.80;49.31;101519.66;5105498;27;20055;-37
2022/08/12 06:33:05;;;;;;;0.10;0.10;;;;;;;23.81;48.06;101515.72;5128423;27;20055;-38
2022/08/12 06:35:48;;;;;;;0.10;0.10;;;;;;;23.81;48.14;101524.06;5121421;27;21375;-38
2022/08/12 06:38:19;;;;;;;0.10;0.10;;;;;;;23.79;45.10;101520.75;5122806;27;20494;-38
2022/08/12 06:43:32;;;;;;;0.10;0.10;;;;;;;23.83;47.65;101529.34;5093258;27;20584;-38
2022/08/12 06:46:20;;;;;;;0.10;0.10;;;;;;;23.84;46.72;101534.63;5090887;28;20533;-38
2022/08/12 06:48:46;;;;;;;0.10;0.10;;;;;;;23.84;47.17;101529.06;5121488;27;20142;-38
2022/08/12 06:51:12;;;;;;;0.10;0.10;;;;;;;23.86;46.61;101525.97;5106184;27;20122;-38
2022/08/12 06:53:38;;;;;;;0.10;0.10;;;;;;;23.86;46.94;101525.97;5110873;27;20051;-38
2022/08/12 06:56:05;;;;;;;0.10;0.10;;;;;;;23.87;46.34;101527.59;5114819;27;20073;-38
2022/08/12 06:58:37;;;;;;;0.10;0.10;;;;;;;23.88;45.93;101527.34;5112253;27;20051;-38
2022/08/12 07:01:03;;;;;;;0.10;0.10;;;;;;;23.88;46.35;101535.69;5111629;27;20043;-39
2022/08/12 07:03:29;;;;;;;0.10;0.10;;;;;;;23.88;48.46;101530.13;5093646;27;20182;-36
2022/08/12 07:05:57;;;;;;;0.10;0.10;;;;;;;23.88;48.83;101532.06;5110968;27;20047;-36
2022/08/12 07:08:27;;;;;;;0.10;0.10;;;;;;;23.88;48.88;101534.84;5091644;27;20131;-36
2022/08/12 07:10:57;;;;;;;0.10;0.10;;;;;;;23.87;48.96;101535.97;5104313;27;21076;-36
2022/08/12 07:13:37;;;;;;;0.10;0.10;;;;;;;23.90;47.06;101529.81;5116570;27;20508;-36
2022/08/12 07:16:23;;;;;;;0.20;0.20;;;;;;;23.92;45.61;101535.88;5108127;28;20050;-39
2022/08/12 07:18:49;;;;;;;0.10;0.10;;;;;;;23.92;47.24;101527.53;5125203;27;21753;-37
2022/08/12 07:21:15;;;;;;;0.10;0.10;;;;;;;23.93;47.97;101529.22;5123075;27;20083;-37
2022/08/12 07:23:41;;;;;;;0.10;0.10;;;;;;;23.93;45.95;101529.22;5100720;28;20550;-37
2022/08/12 07:26:09;;;;;;;0.10;0.10;;;;;;;23.92;48.33;101530.31;5102452;27;20054;-36
2022/08/12 07:28:38;;;;;;;0.10;0.10;;;;;;;23.93;47.01;101529.22;5097396;28;20458;-36
2022/08/12 07:31:07;;;;;;;0.10;0.10;;;;;;;23.92;47.63;101530.31;5101764;28;20186;-37
2022/08/12 07:33:37;;;;;;;0.13;0.10;;;;;;;23.92;48.65;101539.53;5113006;27;20122;-36
2022/08/12 07:36:05;;;;;;;0.10;0.10;;;;;;;23.94;48.34;101542.00;5125431;27;20159;-37
2022/08/12 07:38:34;;;;;;;0.10;0.10;;;;;;;23.93;48.35;101541.16;5106650;27;20085;-37
2022/08/12 07:41:19;;;;;;;0.10;0.10;;;;;;;23.94;46.85;101540.03;5127394;27;20074;-37
2022/08/12 07:43:48;;;;;;;0.10;0.10;;;;;;;23.94;46.90;101542.81;5105787;27;20139;-37
2022/08/12 07:46:15;;;;;;;0.10;0.10;;;;;;;23.96;45.75;101540.56;5106331;28;20552;-38
2022/08/12 07:48:44;;;;;;;0.10;0.10;;;;;;;23.97;45.86;101547.78;5120026;27;20048;-38
2022/08/12 07:51:10;;;;;;;0.10;0.10;;;;;;;23.95;48.21;101543.63;5109677;27;20075;-37
2022/08/12 07:53:37;;;;;;;0.10;0.10;;;;;;;23.97;46.42;101545.00;5097987;28;20050;-37
2022/08/12 07:56:22;;;;;;;0.10;0.10;;;;;;;23.97;46.17;101542.22;5080156;27;20047;-37
2022/08/12 07:58:48;;;;;;;0.10;0.10;;;;;;;23.98;45.92;101543.88;5094676;27;20058;-37
2022/08/12 08:01:18;;;;;;;0.05;0.05;;;;;;;23.97;45.37;101545.00;5106394;28;20046;-37
2022/08/12 08:06:32;;;;;;;0.10;0.10;;;;;;;23.98;45.89;101538.31;5091867;27;20151;-39
2022/08/12 08:08:59;;;;;;;0.10;0.10;;;;;;;24.00;46.97;101546.34;5094662;27;20096;-37
2022/08/12 08:14:10;;;;;;;0.10;0.10;;;;;;;24.03;44.14;101546.59;5103091;27;20132;-38
2022/08/12 08:16:38;;;;;;;0.10;0.10;;;;;;;24.06;43.97;101544.34;5121729;27;20473;-38
2022/08/12 08:19:03;;;;;;;0.10;0.10;;;;;;;24.03;45.03;101542.97;5125521;27;20162;-37
2022/08/12 08:21:32;;;;;;;0.10;0.10;;;;;;;24.03;44.90;101546.59;5125942;27;20489;-37
2022/08/12 08:24:13;;;;;;;0.10;0.10;;;;;;;24.01;47.37;101543.28;5123913;27;20137;-37
2022/08/12 08:26:39;;;;;;;0.10;0.10;;;;;;;24.01;47.48;101543.28;5124063;27;20146;-38
2022/08/12 08:29:07;;;;;;;0.10;0.10;;;;;;;24.00;46.01;101536.03;5124096;27;20058;-37
2022/08/12 08:31:34;;;;;;;0.10;0.10;;;;;;;24.04;45.61;101542.66;5122330;27;20134;-37
2022/08/12 08:34:00;;;;;;;0.10;0.10;;;;;;;24.06;46.23;101549.91;5124994;27;20130;-37
2022/08/12 08:36:46;;;;;;;0.10;0.10;;;;;;;24.05;47.07;101551.88;5108491;27;20047;-38
2022/08/12 08:39:20;;;;;;;0.10;0.10;;;;;;;24.07;45.83;101554.34;5098192;27;20051;-37
2022/08/12 08:44:44;;;;;;;0.10;0.10;;;;;;;24.07;45.91;101546.81;5119211;27;20043;-37
2022/08/12 08:47:11;;;;;;;0.05;0.05;;;;;;;24.05;47.27;101549.09;5107099;27;20050;-37
2022/08/12 08:49:38;;;;;;;0.10;0.10;;;;;;;24.07;45.62;101548.78;5104182;27;20043;-39
2022/08/12 08:52:05;;;;;;;0.10;0.10;;;;;;;24.07;45.86;101541.25;5118505;27;20138;-37
2022/08/12 08:54:32;;;;;;;0.10;0.10;;;;;;;24.10;44.79;101542.63;5107376;27;20784;-37
2022/08/12 08:57:00;;;;;;;0.10;0.10;;;;;;;24.09;44.74;101538.97;5105588;27;20086;-37
2022/08/12 08:59:26;;;;;;;0.10;0.10;;;;;;;24.08;46.59;101542.06;5121913;27;20204;-37
2022/08/12 09:01:52;;;;;;;0.10;0.10;;;;;;;24.09;44.21;101543.72;5111108;27;20125;-38
2022/08/12 09:04:19;;;;;;;0.20;0.20;;;;;;;24.09;46.31;101543.72;5123412;27;20046;-38
2022/08/12 09:07:04;;;;;;;0.10;0.10;;;;;;;24.09;47.42;101538.97;5109086;27;20058;-37
2022/08/12 09:09:51;;;;;;;0.10;0.10;;;;;;;24.09;47.69;101540.94;5106771;27;20043;-38
2022/08/12 09:15:20;;;;;;;0.10;0.10;;;;;;;24.09;47.35;101538.97;5109720;27;20045;-38
2022/08/12 09:17:51;;;;;;;0.10;0.10;;;;;;;24.12;44.78;101538.41;5117713;27;20040;-38
2022/08/12 09:20:17;;;;;;;0.10;0.10;;;;;;;24.11;44.96;101533.97;5124904;27;20047;-37
2022/08/12 09:22:44;;;;;;;0.10;0.10;;;;;;;24.09;47.22;101532.59;5126259;27;20054;-38
2022/08/12 09:25:16;;;;;;;0.10;0.10;;;;;;;24.08;45.91;101519.81;5121066;27;20046;-38
2022/08/12 09:27:52;;;;;;;0.10;0.10;;;;;;;24.07;45.22;101526.53;5119904;27;20069;-37
2022/08/12 09:30:30;;;;;;;0.10;0.10;;;;;;;24.11;44.86;101522.00;5102630;27;20055;-38
2022/08/12 09:33:08;;;;;;;0.10;0.10;;;;;;;24.10;46.00;101521.19;5097895;27;20043;-37
2022/08/12 09:35:43;;;;;;;0.10;0.10;;;;;;;24.11;46.24;101519.22;5101219;27;20053;-37
2022/08/12 09:38:10;;;;;;;;;;;;;;;24.09;47.70;101527.03;5117844;27;20043;-37
2022/08/12 09:40:55;;;;;;;0.10;0.10;;;;;;;24.09;47.77;101524.25;5103195;27;21442;-37
2022/08/12 09:46:30;;;;;;;0.10;0.10;;;;;;;24.10;46.06;101514.78;5094951;28;20065;-37
2022/08/12 09:49:00;;;;;;;0.10;0.10;;;;;;;24.10;46.15;101512.84;5121845;27;20043;-37
2022/08/12 09:51:32;;;;;;;0.10;0.10;;;;;;;24.14;45.74;101513.06;5124461;27;20071;-40
2022/08/12 09:54:11;;;;;;;0.10;0.10;;;;;;;24.16;45.48;101508.00;5102659;28;20045;-37
2022/08/12 09:56:56;;;;;;;;;;;;;;;24.16;43.75;101506.06;5109685;28;20047;-38
2022/08/12 09:59:43;;;;;;;0.10;0.10;;;;;;;24.19;39.31;101502.69;5097797;28;19934;-54
2022/08/12 10:02:28;;;;;;;0.10;0.10;;;;;;;24.17;40.00;101504.09;5108611;27;20047;-40
2022/08/12 10:05:11;;;;;;;0.10;0.10;;;;;;;24.23;39.66;101506.50;5125485;27;20074;-41
2022/08/12 10:07:42;;;;;;;0.10;0.10;;;;;;;24.25;40.76;101497.84;5122626;27;20458;-36
2022/08/12 10:10:09;;;;;;;0.10;0.10;;;;;;;24.17;42.69;101488.22;5124822;27;20043;-36
2022/08/12 10:15:57;;;;;;;0.10;0.10;;;;;;;24.13;44.63;101484.38;5084210;27;20043;-36
2022/08/12 10:18:31;;;;;;;0.10;0.10;;;;;;;24.17;42.43;101482.66;5126331;27;20338;-36
2022/08/12 10:20:58;;;;;;;0.10;0.10;;;;;;;24.15;43.91;101471.00;5125862;27;20338;-36
2022/08/12 10:23:24;;;;;;;0.10;0.10;;;;;;;24.15;44.47;101471.00;5125835;27;20039;-36
2022/08/12 10:29:39;;;;;;;0.10;0.10;;;;;;;24.14;44.85;101465.75;5096731;27;20432;-36
2022/08/12 10:32:15;;;;;;;0.10;0.10;;;;;;;24.14;44.74;101457.41;5084301;27;20043;-36
2022/08/12 10:34:49;;;;;;;0.10;0.10;;;;;;;24.15;45.70;101461.84;5127419;27;20074;-36
2022/08/12 10:37:22;;;;;;;0.10;0.10;;;;;;;24.16;45.29;101452.34;5119212;27;20416;-36
2022/08/12 10:40:10;;;;;;;0.10;0.10;;;;;;;24.24;42.83;101446.13;5107921;28;20046;-35
2022/08/12 10:45:30;;;;;;;0.10;0.10;;;;;;;24.23;43.16;101439.72;5112255;27;20074;-36
2022/08/12 10:47:56;;;;;;;0.10;0.10;;;;;;;24.32;41.94;101433.47;5128579;27;20053;-36
2022/08/12 10:50:42;;;;;;;0.10;0.10;;;;;;;24.28;44.11;101424.91;5111102;27;20449;-36
2022/08/12 10:53:28;;;;;;;0.10;0.10;;;;;;;24.28;44.14;101422.09;5109481;27;20504;-36
2022/08/12 10:56:14;;;;;;;0.10;0.10;;;;;;;24.30;42.05;101425.41;5129352;27;20139;-36
2022/08/12 10:58:39;;;;;;;0.10;0.10;;;;;;;24.30;43.18;101425.41;5115207;27;20087;-35
2022/08/12 11:01:11;;;;;;;0.10;0.10;;;;;;;24.27;44.55;101423.25;5132620;27;20103;-36
2022/08/12 11:03:57;;;;;;;0.10;0.10;;;;;;;24.25;44.44;101417.16;5118206;28;20054;-36
2022/08/12 11:06:47;;;;;;;0.10;0.10;;;;;;;24.27;44.29;101417.69;5115802;28;20301;-36
2022/08/12 11:09:34;;;;;;;0.10;0.10;;;;;;;24.25;45.13;101417.16;5085090;28;20342;-35
2022/08/12 11:12:19;;;;;;;0.10;0.10;;;;;;;24.24;44.82;101410.75;5115811;27;20054;-36
2022/08/12 11:15:06;;;;;;;0.10;0.10;;;;;;;24.23;44.95;101408.28;5110986;27;20107;-36
2022/08/12 11:17:47;;;;;;;0.10;0.10;;;;;;;24.24;44.52;101405.19;5128373;27;20042;-36
2022/08/12 11:20:20;;;;;;;0.10;0.10;;;;;;;24.24;45.19;101407.16;5110877;27;20061;-36
2022/08/12 11:22:55;;;;;;;0.10;0.10;;;;;;;24.24;45.41;101402.41;5126294;27;20043;-36
2022/08/12 11:25:24;;;;;;;0.10;0.10;;;;;;;24.23;45.57;101402.72;5127828;27;20089;-36
2022/08/12 11:28:10;;;;;;;0.10;0.10;;;;;;;24.24;42.00;101391.28;5116259;27;20036;-35
2022/08/12 11:30:39;;;;;;;0.10;0.10;;;;;;;24.24;45.31;101396.84;5132847;27;20539;-36
2022/08/12 11:33:04;;;;;;;0.10;0.10;;;;;;;24.25;43.07;101392.91;5132283;27;20148;-36
2022/08/12 11:35:49;;;;;;;0.10;0.10;;;;;;;24.29;43.82;101398.72;5136375;27;20075;-36
2022/08/12 11:38:16;;;;;;;0.00;0.00;;;;;;;24.29;43.32;101387.56;5136392;27;20096;-35
2022/08/12 11:40:45;;;;;;;0.10;0.10;;;;;;;24.30;42.09;101394.78;5134960;27;20090;-35
2022/08/12 11:43:12;;;;;;;0.10;0.10;;;;;;;24.28;45.01;101386.75;5134576;27;20058;-36
2022/08/12 11:45:46;;;;;;;0.10;0.10;;;;;;;24.29;43.41;101384.78;5129605;27;20054;-36
2022/08/12 11:48:13;;;;;;;0.10;0.10;;;;;;;24.28;43.81;101378.41;5113498;27;20051;-36
2022/08/12 11:50:42;;;;;;;0.10;0.10;;;;;;;24.28;44.77;101377.56;5131676;27;20046;-35
2022/08/12 11:53:08;;;;;;;0.10;0.10;;;;;;;24.28;44.06;101370.06;5114541;28;20445;-36
2022/08/12 11:55:53;;;;;;;0.10;0.10;;;;;;;24.27;45.48;101368.41;5116360;27;20051;-35
2022/08/12 11:58:20;;;;;;;0.10;0.10;;;;;;;24.29;42.93;101363.34;5128522;27;20035;-35
2022/08/12 12:01:06;;;;;;;0.10;0.10;;;;;;;24.31;45.12;101367.78;5120070;27;20051;-35
2022/08/12 12:03:51;;;;;;;0.10;0.10;;;;;;;24.31;45.19;101373.34;5112158;27;20054;-36
2022/08/12 12:06:20;;;;;;;0.10;0.10;;;;;;;24.29;45.21;101371.69;5131349;27;20063;-35
2022/08/12 12:08:48;;;;;;;0.10;0.10;;;;;;;24.29;45.74;101371.69;5131470;27;20055;-35
2022/08/12 12:11:19;;;;;;;0.10;0.10;;;;;;;24.28;44.40;101360.88;5133950;27;20488;-36
2022/08/12 12:13:46;;;;;;;0.10;0.10;;;;;;;24.29;42.90;101355.00;5114355;28;20078;-35
2022/08/12 12:16:31;;;;;;;0.10;0.10;;;;;;;24.29;43.33;101359.75;5114841;28;20385;-36
2022/08/12 12:19:04;;;;;;;0.10;0.10;;;;;;;24.28;45.75;101352.53;5130181;27;20064;-36
2022/08/12 12:21:30;;;;;;;0.00;0.00;;;;;;;24.28;46.11;101355.31;5130121;27;20043;-35
2022/08/12 12:24:16;;;;;;;0.10;0.10;;;;;;;24.28;45.72;101356.13;5132557;27;20461;-35
2022/08/12 12:26:51;;;;;;;0.10;0.10;;;;;;;24.27;45.92;101348.91;5132993;27;20406;-36
2022/08/12 12:29:28;;;;;;;0.10;0.10;;;;;;;24.29;42.85;101345.81;5106469;28;20077;-36
2022/08/12 12:32:13;;;;;;;0.10;0.10;;;;;;;24.31;43.91;101339.94;5118328;27;20047;-35
2022/08/12 12:34:39;;;;;;;0.10;0.10;;;;;;;24.31;43.62;101348.28;5110746;28;20047;-35
2022/08/12 12:37:25;;;;;;;0.10;0.10;;;;;;;24.29;42.29;101340.25;5122490;27;20051;-36
2022/08/12 12:40:12;;;;;;;0.10;0.10;;;;;;;24.29;41.12;101334.69;5112195;27;20051;-35
2022/08/12 12:42:38;;;;;;;0.10;0.10;;;;;;;24.29;40.75;101331.91;5128436;27;20051;-35
2022/08/12 12:45:24;;;;;;;0.10;0.10;;;;;;;24.31;40.94;101337.16;5133495;27;20035;-35
2022/08/12 12:48:09;;;;;;;0.10;0.10;;;;;;;24.28;40.11;101316.34;5129785;27;20151;-35
2022/08/12 12:50:41;;;;;;;0.10;0.10;;;;;;;24.28;40.90;101319.94;5117272;27;20062;-35
2022/08/12 12:53:16;;;;;;;0.10;0.10;;;;;;;24.29;41.10;101318.00;5137679;27;20046;-35
2022/08/12 12:56:03;;;;;;;0.10;0.10;;;;;;;24.28;40.57;101314.38;5122247;27;20035;-35
2022/08/12 12:58:29;;;;;;;0.10;0.10;;;;;;;24.28;41.24;101306.03;5136900;27;20081;-35
2022/08/12 13:00:58;;;;;;;0.10;0.10;;;;;;;24.26;44.00;101310.25;5114420;27;20042;-35
2022/08/12 13:03:32;;;;;;;0.10;0.10;;;;;;;24.27;41.78;101306.34;5134554;27;20212;-35
2022/08/12 13:06:15;;;;;;;0.10;0.10;;;;;;;24.27;42.71;101307.19;5136130;27;20342;-35
2022/08/12 13:08:44;;;;;;;0.10;0.10;;;;;;;24.25;44.80;101294.69;5131585;27;20251;-35
2022/08/12 13:11:12;;;;;;;0.10;0.10;;;;;;;24.25;41.70;101297.47;5132583;27;20050;-35
2022/08/12 13:13:40;;;;;;;0.00;0.00;;;;;;;24.27;41.84;101309.97;5133212;27;20455;-35
2022/08/12 13:16:29;;;;;;;0.10;0.10;;;;;;;24.29;40.79;101301.28;5115833;27;20046;-35
2022/08/12 13:18:54;;;;;;;0.10;0.10;;;;;;;24.28;41.03;101294.09;5131471;27;20074;-35
2022/08/12 13:21:26;;;;;;;0.10;0.10;;;;;;;24.26;41.47;101291.59;5113869;27;20051;-35
2022/08/12 13:24:02;;;;;;;0.10;0.10;;;;;;;24.26;41.43;101291.59;5134745;27;20047;-35
2022/08/12 13:26:39;;;;;;;0.15;0.10;;;;;;;24.27;41.11;101286.88;5130491;27;20145;-35
2022/08/12 13:29:04;;;;;;;0.10;0.10;;;;;;;24.26;40.97;101286.03;5113920;28;20130;-35
2022/08/12 13:31:30;;;;;;;0.10;0.10;;;;;;;24.26;41.59;101291.59;5133549;27;20397;-35
2022/08/12 13:34:03;;;;;;;0.10;0.10;;;;;;;24.28;41.43;101285.72;5138602;27;20477;-35
2022/08/12 13:36:48;;;;;;;;;;;;;;;24.26;43.32;101290.75;5113474;27;20121;-35
2022/08/12 13:39:14;;;;;;;0.10;0.10;;;;;;;24.25;42.80;101281.59;5132279;27;20342;-35
2022/08/12 13:41:43;;;;;;;0.10;0.10;;;;;;;24.25;41.69;101284.38;5135342;27;20051;-35
2022/08/12 13:44:10;;;;;;;0.10;0.10;;;;;;;24.25;41.23;101284.38;5117115;27;20190;-35